EYKA/KUN METAR and TAF weather

Enter ICAO airport designator
Station Type Date Time Source
EYKA METAR 2021/09/16 21:50 UTC NOAA

EYKA 162150Z AUTO 09008KT 9999 -UP OVC006/// 12/10 Q1011


Station Type Date Time Source
EYKA Decoded METAR 2021/09/16 21:50 UTC NOAA

Kaunas, Lithuania (EYKA) 54-54N 023-55-12E
Sep 16, 2021 - 05:50 PM EDT / 2021.09.16 2150 UTC
Wind: from the E (090 degrees) at 9 MPH (8 KT):0
Visibility: greater than 7 mile(s):0
Sky conditions: overcast
Weather: light precipitation
Temperature: 53 F (12 C)
Dew Point: 50 F (10 C)
Relative Humidity: 87%
Pressure (altimeter): 29.85 in. Hg (1011 hPa)
ob: EYKA 162150Z AUTO 09008KT 9999 -UP OVC006/// 12/10 Q1011
cycle: 22

Station Type Date Time Source
EYKA TAF 2021/09/16 19:24 UTC NOAA

TAF
AMD EYKA 161910Z 1619/1718 09008KT 5000 BR BKN005 OVC015
TEMPO 1619/1623 1500 RA OVC002
BECMG 1623/1701 OVC002
BECMG 1712/1714 BKN005 OVC010

Example: see airport list